Time;durP1;ratioP1;P1;durP2;ratioP2;P2;SDS_P1;SDS_P2;PMS_P1;PMS_P2;Temp;Humidity;BMP_temperature;BMP_pressure;BME280_temperature;BME280_humidity;BME280_pressure;Samples;Min_cycle;Max_cycle;Signal;HPM_P1;HPM_P2
2023/03/18 00:00:27;;;;;;;;;8.00;6.33;;;;;;;;6335450;22;47084;-77
2023/03/18 00:02:53;;;;;;;;;8.67;7.00;;;;;;;;6336164;22;45419;-78
2023/03/18 00:05:18;;;;;;;;;8.33;6.00;;;;;;;;6335793;22;45316;-78
2023/03/18 00:07:44;;;;;;;;;8.50;7.75;;;;;;;;6335634;22;45517;-77
2023/03/18 00:10:10;;;;;;;;;11.25;6.50;;;;;;;;6335988;22;46139;-78
2023/03/18 00:12:37;;;;;;;;;12.25;1.75;;;;;;;;6335908;22;45300;-77
2023/03/18 00:15:04;;;;;;;;;6.00;6.00;;;;;;;;6336127;22;45224;-77
2023/03/18 00:17:29;;;;;;;;;9.00;7.25;;;;;;;;6335849;22;45169;-78
2023/03/18 00:19:55;;;;;;;;;10.25;8.00;;;;;;;;6336376;22;45163;-77
2023/03/18 00:22:20;;;;;;;;;11.00;8.00;;;;;;;;6335387;22;45220;-77
2023/03/18 00:24:47;;;;;;;;;10.00;8.00;;;;;;;;6336031;22;45490;-78
2023/03/18 00:27:12;;;;;;;;;8.00;8.00;;;;;;;;6335865;22;45400;-78
2023/03/18 00:29:38;;;;;;;;;12.00;7.00;;;;;;;;6336084;22;45663;-77
2023/03/18 00:32:04;;;;;;;;;8.00;7.50;;;;;;;;6335650;22;45248;-77
2023/03/18 00:34:29;;;;;;;;;8.00;7.00;;;;;;;;6336423;22;45292;-78
2023/03/18 00:36:55;;;;;;;;;7.33;7.00;;;;;;;;6335746;22;45379;-78
2023/03/18 00:39:30;;;;;;;;;8.50;7.00;;;;;;;;6335403;22;45636;-77
2023/03/18 00:41:56;;;;;;;;;10.75;8.00;;;;;;;;6335651;22;45945;-77
2023/03/18 00:44:21;;;;;;;;;10.00;6.50;;;;;;;;6335874;22;45415;-77
2023/03/18 00:46:47;;;;;;;;;6.00;3.00;;;;;;;;6336005;22;45226;-78
2023/03/18 00:49:12;;;;;;;;;8.00;8.00;;;;;;;;6336103;22;46408;-78
2023/03/18 00:51:38;;;;;;;;;8.00;7.00;;;;;;;;6334608;22;45204;-77
2023/03/18 00:54:06;;;;;;;;;7.00;6.75;;;;;;;;6335589;22;45224;-77
2023/03/18 00:56:31;;;;;;;;;10.25;7.00;;;;;;;;6335485;22;45491;-78
2023/03/18 00:58:57;;;;;;;;;7.75;6.25;;;;;;;;6335937;22;46052;-77
2023/03/18 01:01:23;;;;;;;;;6.75;6.00;;;;;;;;6335440;22;45280;-77
2023/03/18 01:03:49;;;;;;;;;7.00;6.25;;;;;;;;6335729;22;45219;-78
2023/03/18 01:06:16;;;;;;;;;8.50;7.75;;;;;;;;6335334;22;45403;-78
2023/03/18 01:08:41;;;;;;;;;7.25;4.50;;;;;;;;6335097;22;46587;-78
2023/03/18 01:11:07;;;;;;;;;8.00;7.00;;;;;;;;6335290;22;45221;-78
2023/03/18 01:13:33;;;;;;;;;8.75;6.75;;;;;;;;6335520;22;45260;-77
2023/03/18 01:15:58;;;;;;;;;11.50;6.50;;;;;;;;6333637;22;45469;-77
2023/03/18 01:18:23;;;;;;;;;10.00;7.50;;;;;;;;6335815;22;46319;-77
2023/03/18 01:20:49;;;;;;;;;12.00;8.00;;;;;;;;6335093;22;45284;-75
2023/03/18 01:23:14;;;;;;;;;7.50;6.00;;;;;;;;6333182;22;45264;-77
2023/03/18 01:25:39;;;;;;;;;7.00;7.00;;;;;;;;6335539;22;45529;-77
2023/03/18 01:28:05;;;;;;;;;12.67;6.67;;;;;;;;6335129;22;47219;-77
2023/03/18 01:30:30;;;;;;;;;11.00;7.50;;;;;;;;6335387;22;45204;-77
2023/03/18 01:32:56;;;;;;;;;6.00;6.00;;;;;;;;6335492;22;45312;-77
2023/03/18 01:35:22;;;;;;;;;7.75;7.00;;;;;;;;6335105;22;45407;-76
2023/03/18 01:37:47;;;;;;;;;7.00;4.50;;;;;;;;6335523;22;46423;-78
2023/03/18 01:40:13;;;;;;;;;11.33;4.33;;;;;;;;6335168;22;45403;-78
2023/03/18 01:42:39;;;;;;;;;5.50;5.50;;;;;;;;6335586;22;45309;-78
2023/03/18 01:45:10;;;;;;;;;12.25;6.00;;;;;;;;6333704;22;45607;-77
2023/03/18 01:47:35;;;;;;;;;4.75;4.00;;;;;;;;6334428;22;46748;-77
2023/03/18 01:50:01;;;;;;;;;3.00;3.00;;;;;;;;6335345;22;45221;-77
2023/03/18 01:52:28;;;;;;;;;7.00;5.50;;;;;;;;6335247;22;45274;-77
2023/03/18 01:55:14;;;;;;;;;6.00;6.00;;;;;;;;6335548;22;45422;-78
2023/03/18 01:57:40;;;;;;;;;10.25;6.50;;;;;;;;6334309;22;45337;-78
2023/03/18 02:00:06;;;;;;;;;5.75;5.50;;;;;;;;6334876;22;45513;-77
2023/03/18 02:02:32;;;;;;;;;8.50;6.25;;;;;;;;6334339;22;45301;-76
2023/03/18 02:05:00;;;;;;;;;7.00;5.00;;;;;;;;6335683;22;45476;-77
2023/03/18 02:07:28;;;;;;;;;8.50;4.75;;;;;;;;6336518;22;46045;-78
2023/03/18 02:09:55;;;;;;;;;6.50;6.50;;;;;;;;6336496;22;45624;-77
2023/03/18 02:12:23;;;;;;;;;8.00;6.00;;;;;;;;6337053;22;45332;-78
2023/03/18 02:14:49;;;;;;;;;8.00;8.00;;;;;;;;6336726;22;45402;-77
2023/03/18 02:17:17;;;;;;;;;6.25;6.25;;;;;;;;6336028;22;47072;-77
2023/03/18 02:19:51;;;;;;;;;10.75;7.00;;;;;;;;6336401;22;45361;-77
2023/03/18 02:22:26;;;;;;;;;14.50;6.75;;;;;;;;6337132;22;45292;-77
2023/03/18 02:25:10;;;;;;;;;9.25;7.25;;;;;;;;6334788;22;45242;-77
2023/03/18 02:27:38;;;;;;;;;10.75;6.50;;;;;;;;6336823;22;45468;-77
2023/03/18 02:30:06;;;;;;;;;15.00;6.25;;;;;;;;6336581;22;45703;-77
2023/03/18 02:32:32;;;;;;;;;8.75;7.00;;;;;;;;6336366;22;45273;-78
2023/03/18 02:35:00;;;;;;;;;8.25;7.00;;;;;;;;6336212;22;45456;-77
2023/03/18 02:37:25;;;;;;;;;4.00;3.00;;;;;;;;6336605;22;45327;-77
2023/03/18 02:39:50;;;;;;;;;7.00;4.00;;;;;;;;6336774;22;45332;-77
2023/03/18 02:42:26;;;;;;;;;9.33;7.00;;;;;;;;6336759;22;45301;-78
2023/03/18 02:44:51;;;;;;;;;4.50;3.75;;;;;;;;6336731;22;45271;-77
2023/03/18 02:47:19;;;;;;;;;8.33;6.00;;;;;;;;6336331;22;45197;-77
2023/03/18 02:49:45;;;;;;;;;4.00;4.00;;;;;;;;6336786;22;45641;-78
2023/03/18 02:52:10;;;;;;;;;3.00;3.00;;;;;;;;6336628;22;45260;-78
2023/03/18 02:54:36;;;;;;;;;5.00;5.00;;;;;;;;6336437;22;45427;-78
2023/03/18 02:57:01;;;;;;;;;8.00;4.50;;;;;;;;6334607;22;47205;-78
2023/03/18 02:59:27;;;;;;;;;3.75;3.75;;;;;;;;6336739;22;45304;-78
2023/03/18 03:01:53;;;;;;;;;7.00;4.00;;;;;;;;6336015;22;45489;-77
2023/03/18 03:04:19;;;;;;;;;6.00;3.00;;;;;;;;6336943;22;45435;-76
2023/03/18 03:06:45;;;;;;;;;7.75;3.00;;;;;;;;6334304;22;46443;-77
2023/03/18 03:09:12;;;;;;;;;3.25;3.25;;;;;;;;6334757;22;45404;-77
2023/03/18 03:11:37;;;;;;;;;3.00;3.00;;;;;;;;6336158;22;45319;-77
2023/03/18 03:14:03;;;;;;;;;3.00;3.00;;;;;;;;6336903;22;45348;-77
2023/03/18 03:16:28;;;;;;;;;6.50;3.00;;;;;;;;6335835;22;46077;-77
2023/03/18 03:18:54;;;;;;;;;4.00;4.00;;;;;;;;6336469;22;45240;-77
2023/03/18 03:21:19;;;;;;;;;2.00;2.00;;;;;;;;6336948;22;45288;-77
2023/03/18 03:23:46;;;;;;;;;3.00;3.00;;;;;;;;6336873;22;45390;-77
2023/03/18 03:26:11;;;;;;;;;2.25;2.25;;;;;;;;6336209;22;46566;-77
2023/03/18 03:28:37;;;;;;;;;4.00;2.00;;;;;;;;6336705;22;45320;-77
2023/03/18 03:31:02;;;;;;;;;2.00;1.00;;;;;;;;6336256;22;45312;-78
2023/03/18 03:33:28;;;;;;;;;4.00;4.00;;;;;;;;6336302;22;45367;-78
2023/03/18 03:35:53;;;;;;;;;2.75;2.75;;;;;;;;6335973;22;46197;-77
2023/03/18 03:38:18;;;;;;;;;3.67;3.00;;;;;;;;6336434;22;45202;-77
2023/03/18 03:40:44;;;;;;;;;4.75;2.00;;;;;;;;6336913;22;45193;-78
2023/03/18 03:43:11;;;;;;;;;4.50;3.00;;;;;;;;6336515;22;45492;-77
2023/03/18 03:45:37;;;;;;;;;5.00;3.00;;;;;;;;6335686;22;46190;-78
2023/03/18 03:48:02;;;;;;;;;2.00;2.00;;;;;;;;6336205;22;45286;-77
2023/03/18 03:50:28;;;;;;;;;2.00;2.00;;;;;;;;6336137;22;45283;-78
2023/03/18 03:52:53;;;;;;;;;2.00;2.00;;;;;;;;6335714;22;45328;-77
2023/03/18 03:55:19;;;;;;;;;6.00;3.00;;;;;;;;6335921;22;45384;-78
2023/03/18 03:57:45;;;;;;;;;1.75;1.75;;;;;;;;6336607;22;45337;-77
2023/03/18 04:00:12;;;;;;;;;1.00;1.00;;;;;;;;6335456;22;45254;-78
2023/03/18 04:02:38;;;;;;;;;2.50;1.25;;;;;;;;6336098;22;45515;-77
2023/03/18 04:05:03;;;;;;;;;6.00;2.00;;;;;;;;6334363;22;48062;-77
2023/03/18 04:07:28;;;;;;;;;1.75;1.75;;;;;;;;6336126;22;45236;-78
2023/03/18 04:09:54;;;;;;;;;2.33;2.33;;;;;;;;6336275;22;45215;-78
2023/03/18 04:12:20;;;;;;;;;5.50;2.00;;;;;;;;6335893;22;45242;-77
2023/03/18 04:14:46;;;;;;;;;4.33;2.67;;;;;;;;6333595;22;48431;-77
2023/03/18 04:17:11;;;;;;;;;2.75;2.75;;;;;;;;6336192;22;45339;-78
2023/03/18 04:19:38;;;;;;;;;3.00;2.50;;;;;;;;6336141;22;45274;-77
2023/03/18 04:22:03;;;;;;;;;4.50;2.75;;;;;;;;6335908;22;45497;-78
2023/03/18 04:24:28;;;;;;;;;4.00;3.00;;;;;;;;6335834;22;46915;-78
2023/03/18 04:26:53;;;;;;;;;6.00;2.00;;;;;;;;6335548;22;45319;-78
2023/03/18 04:29:19;;;;;;;;;3.00;3.00;;;;;;;;6335584;22;45256;-78
2023/03/18 04:31:44;;;;;;;;;5.33;3.00;;;;;;;;6336469;22;45264;-78
2023/03/18 04:34:09;;;;;;;;;6.67;2.00;;;;;;;;6334055;22;46347;-77
2023/03/18 04:36:35;;;;;;;;;4.25;2.75;;;;;;;;6335623;22;45323;-78
2023/03/18 04:39:00;;;;;;;;;2.00;2.00;;;;;;;;6336572;22;45448;-78
2023/03/18 04:41:25;;;;;;;;;2.00;2.00;;;;;;;;6334378;22;45442;-77
2023/03/18 04:43:50;;;;;;;;;6.00;2.00;;;;;;;;6335183;22;46205;-78
2023/03/18 04:46:16;;;;;;;;;2.00;2.00;;;;;;;;6336165;22;45357;-78
2023/03/18 04:48:41;;;;;;;;;5.00;2.75;;;;;;;;6336379;22;45226;-77
2023/03/18 04:51:11;;;;;;;;;2.00;2.00;;;;;;;;6334232;22;45515;-78
2023/03/18 04:53:37;;;;;;;;;2.00;2.00;;;;;;;;6335535;22;46162;-78
2023/03/18 04:56:03;;;;;;;;;1.00;1.00;;;;;;;;6335234;22;45927;-78
2023/03/18 04:58:28;;;;;;;;;2.00;2.00;;;;;;;;6336504;22;45341;-78
2023/03/18 05:00:54;;;;;;;;;1.75;1.00;;;;;;;;6334161;22;45365;-78
2023/03/18 05:03:19;;;;;;;;;1.00;1.00;;;;;;;;6336010;22;45311;-78
2023/03/18 05:05:45;;;;;;;;;3.00;1.75;;;;;;;;6335593;22;45307;-77
2023/03/18 05:08:10;;;;;;;;;3.00;2.25;;;;;;;;6336166;22;45355;-77
2023/03/18 05:10:35;;;;;;;;;3.00;2.00;;;;;;;;6335796;22;45411;-78
2023/03/18 05:13:00;;;;;;;;;1.00;0.25;;;;;;;;6335781;22;46131;-76
2023/03/18 05:15:26;;;;;;;;;0.00;0.00;;;;;;;;6333821;22;45327;-78
2023/03/18 05:17:51;;;;;;;;;3.00;1.00;;;;;;;;6334224;22;45278;-78
2023/03/18 05:20:17;;;;;;;;;3.00;1.00;;;;;;;;6335662;22;45272;-78
2023/03/18 05:22:42;;;;;;;;;1.75;1.00;;;;;;;;6335424;22;46245;-78
2023/03/18 05:25:09;;;;;;;;;1.00;1.00;;;;;;;;6335010;22;45509;-77
2023/03/18 05:27:35;;;;;;;;;1.50;1.00;;;;;;;;6335982;22;45267;-77
2023/03/18 05:30:01;;;;;;;;;1.00;1.00;;;;;;;;6335624;22;45350;-77
2023/03/18 05:32:26;;;;;;;;;2.25;1.00;;;;;;;;6335092;22;46114;-77
2023/03/18 05:34:51;;;;;;;;;1.67;0.00;;;;;;;;6335684;22;45221;-77
2023/03/18 05:37:16;;;;;;;;;4.50;1.50;;;;;;;;6335933;22;45210;-78
2023/03/18 05:39:42;;;;;;;;;1.00;1.00;;;;;;;;6335582;22;45467;-77
2023/03/18 05:42:08;;;;;;;;;1.00;1.00;;;;;;;;6337058;22;45230;-77
2023/03/18 05:44:33;;;;;;;;;2.00;2.00;;;;;;;;6336653;22;45283;-77
2023/03/18 05:46:59;;;;;;;;;1.00;1.00;;;;;;;;6336726;22;45275;-78
2023/03/18 05:49:26;;;;;;;;;2.25;1.00;;;;;;;;6337139;22;45272;-77
2023/03/18 05:51:51;;;;;;;;;2.00;2.00;;;;;;;;6336777;22;46164;-77
2023/03/18 05:54:17;;;;;;;;;1.25;1.00;;;;;;;;6336522;22;45311;-77
2023/03/18 05:56:44;;;;;;;;;1.00;1.00;;;;;;;;6337093;22;45278;-77
2023/03/18 05:59:10;;;;;;;;;1.00;1.00;;;;;;;;6336883;22;45516;-77
2023/03/18 06:01:36;;;;;;;;;3.00;1.00;;;;;;;;6336311;22;47039;-77
2023/03/18 06:04:01;;;;;;;;;1.00;1.00;;;;;;;;6336786;22;45582;-77
2023/03/18 06:06:27;;;;;;;;;1.25;1.25;;;;;;;;6336412;22;45325;-77
2023/03/18 06:08:55;;;;;;;;;3.00;1.00;;;;;;;;6336250;22;45334;-78
2023/03/18 06:11:20;;;;;;;;;1.75;1.00;;;;;;;;6336136;22;46882;-77
2023/03/18 06:13:45;;;;;;;;;1.75;0.00;;;;;;;;6336752;22;45290;-78
2023/03/18 06:16:11;;;;;;;;;3.00;3.00;;;;;;;;6336440;22;45234;-77
2023/03/18 06:18:36;;;;;;;;;1.50;1.50;;;;;;;;6337014;22;45539;-77
2023/03/18 06:21:02;;;;;;;;;4.75;2.00;;;;;;;;6336705;22;46340;-77
2023/03/18 06:23:27;;;;;;;;;4.75;3.00;;;;;;;;6334605;22;45257;-77
2023/03/18 06:25:52;;;;;;;;;3.00;3.00;;;;;;;;6336565;22;45145;-76
2023/03/18 06:28:18;;;;;;;;;5.00;3.00;;;;;;;;6337067;22;45627;-78
2023/03/18 06:30:43;;;;;;;;;2.00;2.00;;;;;;;;6336439;22;46135;-77
2023/03/18 06:33:08;;;;;;;;;6.50;2.25;;;;;;;;6337073;22;45297;-78
2023/03/18 06:35:34;;;;;;;;;2.67;2.67;;;;;;;;6337054;22;45486;-78
2023/03/18 06:38:00;;;;;;;;;4.50;3.00;;;;;;;;6335871;22;45392;-78
2023/03/18 06:40:25;;;;;;;;;4.50;3.00;;;;;;;;6336441;22;46761;-78
2023/03/18 06:42:50;;;;;;;;;4.33;2.00;;;;;;;;6336568;22;45279;-78
2023/03/18 06:45:16;;;;;;;;;2.00;2.00;;;;;;;;6336940;22;45198;-78
2023/03/18 06:47:41;;;;;;;;;2.75;1.75;;;;;;;;6336869;22;45407;-79
2023/03/18 06:50:07;;;;;;;;;6.00;2.50;;;;;;;;6336026;22;46904;-79
2023/03/18 06:52:32;;;;;;;;;3.50;2.25;;;;;;;;6335423;22;45801;-79
2023/03/18 06:54:57;;;;;;;;;4.00;2.67;;;;;;;;6336886;22;45238;-78
2023/03/18 06:57:23;;;;;;;;;5.75;1.75;;;;;;;;6336692;22;45384;-78
2023/03/18 06:59:48;;;;;;;;;6.00;2.00;;;;;;;;6336679;22;46396;-79
2023/03/18 07:02:14;;;;;;;;;3.00;2.00;;;;;;;;6336622;22;45229;-76
2023/03/18 07:04:39;;;;;;;;;2.00;2.00;;;;;;;;6336646;22;45280;-78
2023/03/18 07:07:06;;;;;;;;;5.25;2.00;;;;;;;;6334558;22;45285;-79
2023/03/18 07:09:32;;;;;;;;;2.50;2.00;;;;;;;;6335577;22;47190;-77
2023/03/18 07:11:57;;;;;;;;;7.00;2.00;;;;;;;;6336154;22;45230;-78
2023/03/18 07:14:23;;;;;;;;;2.00;1.25;;;;;;;;6335623;22;45325;-78
2023/03/18 07:16:48;;;;;;;;;5.50;2.75;;;;;;;;6335007;22;45221;-79
2023/03/18 07:19:14;;;;;;;;;2.50;2.50;;;;;;;;6336270;22;45432;-81
2023/03/18 07:21:41;;;;;;;;;2.00;2.00;;;;;;;;6335258;22;45232;-79
2023/03/18 07:24:07;;;;;;;;;1.00;1.00;;;;;;;;6336094;22;45201;-79
2023/03/18 07:26:32;;;;;;;;;1.00;1.00;;;;;;;;6335489;22;45284;-80
2023/03/18 07:28:57;;;;;;;;;2.00;2.00;;;;;;;;6335888;22;45925;-80
2023/03/18 07:31:22;;;;;;;;;1.00;1.00;;;;;;;;6336492;22;45512;-80
2023/03/18 07:33:48;;;;;;;;;2.25;1.25;;;;;;;;6336442;22;45315;-79
2023/03/18 07:36:14;;;;;;;;;0.00;0.00;;;;;;;;6336264;22;45281;-79
2023/03/18 07:38:39;;;;;;;;;1.00;1.00;;;;;;;;6335928;22;46323;-79
2023/03/18 07:41:05;;;;;;;;;1.00;1.00;;;;;;;;6336325;22;45271;-79
2023/03/18 07:43:30;;;;;;;;;1.00;1.00;;;;;;;;6336374;22;45302;-80
2023/03/18 07:45:55;;;;;;;;;0.25;0.25;;;;;;;;6336131;22;45324;-79
2023/03/18 07:48:20;;;;;;;;;1.67;1.00;;;;;;;;6336108;22;46155;-80
2023/03/18 07:50:46;;;;;;;;;2.00;1.00;;;;;;;;6335973;22;45331;-80
2023/03/18 07:53:11;;;;;;;;;1.00;1.00;;;;;;;;6336280;22;45499;-79
2023/03/18 07:55:37;;;;;;;;;1.00;1.00;;;;;;;;6335843;22;45287;-82
2023/03/18 07:58:03;;;;;;;;;1.00;1.00;;;;;;;;6336500;22;45513;-82
2023/03/18 08:00:29;;;;;;;;;1.00;1.00;;;;;;;;6335847;22;45221;-81
2023/03/18 08:02:54;;;;;;;;;0.75;0.75;;;;;;;;6336121;22;45334;-81
2023/03/18 08:05:20;;;;;;;;;3.00;1.33;;;;;;;;6335919;22;45260;-81
2023/03/18 08:07:46;;;;;;;;;5.50;3.00;;;;;;;;6335876;22;45376;-81
2023/03/18 08:10:11;;;;;;;;;0.25;0.25;;;;;;;;6335440;22;45325;-81
2023/03/18 08:12:37;;;;;;;;;5.00;1.00;;;;;;;;6336559;22;45335;-81
2023/03/18 08:15:03;;;;;;;;;1.00;1.00;;;;;;;;6336142;22;45507;-79
2023/03/18 08:17:28;;;;;;;;;1.00;1.00;;;;;;;;6335532;22;46132;-79
2023/03/18 08:19:54;;;;;;;;;2.67;1.00;;;;;;;;6335723;22;45256;-80
2023/03/18 08:22:19;;;;;;;;;0.75;0.75;;;;;;;;6336035;22;45236;-79
2023/03/18 08:24:44;;;;;;;;;0.00;0.00;;;;;;;;6335820;22;45209;-79
2023/03/18 08:27:09;;;;;;;;;1.00;1.00;;;;;;;;6335763;22;46459;-80
2023/03/18 08:29:35;;;;;;;;;2.33;1.00;;;;;;;;6334865;22;45331;-80
2023/03/18 08:32:01;;;;;;;;;1.00;1.00;;;;;;;;6336345;22;45216;-80
2023/03/18 08:34:26;;;;;;;;;1.25;1.25;;;;;;;;6335433;22;45424;-80
2023/03/18 08:36:52;;;;;;;;;1.00;1.00;;;;;;;;6335575;22;45331;-81
2023/03/18 08:39:17;;;;;;;;;1.00;1.00;;;;;;;;6335554;22;45418;-79
2023/03/18 08:41:42;;;;;;;;;1.00;1.00;;;;;;;;6335231;22;45359;-78
2023/03/18 08:44:09;;;;;;;;;0.75;0.75;;;;;;;;6335623;22;45167;-80
2023/03/18 08:46:35;;;;;;;;;1.00;1.00;;;;;;;;6335158;22;47334;-79
2023/03/18 08:49:00;;;;;;;;;0.75;0.75;;;;;;;;6335389;22;45316;-79
2023/03/18 08:51:26;;;;;;;;;1.25;1.25;;;;;;;;6335737;22;45296;-79
2023/03/18 08:53:53;;;;;;;;;2.50;1.00;;;;;;;;6335061;22;45221;-79
2023/03/18 08:56:19;;;;;;;;;1.00;1.00;;;;;;;;6335151;22;45486;-79
2023/03/18 08:58:44;;;;;;;;;2.00;2.00;;;;;;;;6335070;22;45300;-78
2023/03/18 09:01:10;;;;;;;;;1.50;1.50;;;;;;;;6336048;22;45260;-79
2023/03/18 09:03:35;;;;;;;;;2.25;1.00;;;;;;;;6334376;22;45283;-80
2023/03/18 09:06:00;;;;;;;;;4.00;1.00;;;;;;;;6334624;22;45658;-79
2023/03/18 09:08:28;;;;;;;;;1.00;0.00;;;;;;;;6335827;22;45343;-78
2023/03/18 09:10:53;;;;;;;;;0.25;0.00;;;;;;;;6335511;22;45332;-79
2023/03/18 09:13:19;;;;;;;;;0.00;0.00;;;;;;;;6335403;22;45440;-80
2023/03/18 09:15:44;;;;;;;;;1.00;1.00;;;;;;;;6335982;22;46237;-79
2023/03/18 09:18:09;;;;;;;;;1.00;1.00;;;;;;;;6336302;22;45338;-81
2023/03/18 09:20:35;;;;;;;;;1.25;1.00;;;;;;;;6336493;22;45276;-79
2023/03/18 09:23:01;;;;;;;;;2.00;1.00;;;;;;;;6336284;22;45403;-80
2023/03/18 09:25:26;;;;;;;;;2.00;1.00;;;;;;;;6335716;22;47344;-80
2023/03/18 09:27:52;;;;;;;;;3.00;0.00;;;;;;;;6335904;22;45276;-78
2023/03/18 09:30:18;;;;;;;;;1.00;1.00;;;;;;;;6336604;22;45237;-80
2023/03/18 09:32:43;;;;;;;;;1.00;1.00;;;;;;;;6335756;22;45478;-79
2023/03/18 09:35:08;;;;;;;;;1.00;0.00;;;;;;;;6336589;22;46260;-78
2023/03/18 09:37:34;;;;;;;;;0.75;0.75;;;;;;;;6336206;22;45434;-79
2023/03/18 09:40:00;;;;;;;;;1.00;1.00;;;;;;;;6337056;22;45364;-78
2023/03/18 09:42:37;;;;;;;;;0.00;0.00;;;;;;;;6336998;22;45319;-79
2023/03/18 09:45:09;;;;;;;;;1.00;1.00;;;;;;;;6335793;22;46517;-79
2023/03/18 09:47:57;;;;;;;;;1.75;0.00;;;;;;;;6334629;22;45696;-79
2023/03/18 09:50:30;;;;;;;;;1.25;1.00;;;;;;;;6319612;22;45348;-78
2023/03/18 09:53:02;;;;;;;;;0.25;0.25;;;;;;;;6336278;22;46187;-79
2023/03/18 09:55:41;;;;;;;;;0.00;0.00;;;;;;;;6332494;22;46015;-80
2023/03/18 09:58:16;;;;;;;;;1.00;1.00;;;;;;;;6335603;22;45586;-79
2023/03/18 10:00:43;;;;;;;;;5.00;3.25;;;;;;;;6335397;22;45261;-79
2023/03/18 10:03:08;;;;;;;;;4.00;2.25;;;;;;;;6335814;22;45501;-79
2023/03/18 10:05:36;;;;;;;;;1.00;1.00;;;;;;;;6335333;22;46324;-79
2023/03/18 10:08:31;;;;;;;;;0.75;0.75;;;;;;;;6335048;22;45712;-78
2023/03/18 10:11:00;;;;;;;;;0.00;0.00;;;;;;;;6208671;22;45435;-78
2023/03/18 10:13:32;;;;;;;;;1.00;0.25;;;;;;;;6209104;22;45300;-78
2023/03/18 10:16:00;;;;;;;;;1.00;1.00;;;;;;;;6207813;22;46307;-78
2023/03/18 10:18:30;;;;;;;;;2.00;0.50;;;;;;;;6208600;22;45386;-77
2023/03/18 10:21:03;;;;;;;;;0.50;0.50;;;;;;;;6208816;22;45312;-78
2023/03/18 10:23:34;;;;;;;;;1.00;1.00;;;;;;;;6208804;22;45467;-79
2023/03/18 10:26:03;;;;;;;;;1.75;1.00;;;;;;;;6207286;22;46921;-77
2023/03/18 10:28:48;;;;;;;;;1.00;1.00;;;;;;;;6208997;22;45659;-78
2023/03/18 10:31:32;;;;;;;;;0.75;0.50;;;;;;;;6207972;22;45351;-79
2023/03/18 10:34:05;;;;;;;;;0.00;0.00;;;;;;;;6207967;22;45445;-78
2023/03/18 10:36:33;;;;;;;;;1.75;0.00;;;;;;;;6208510;22;45490;-78
2023/03/18 10:38:58;;;;;;;;;0.00;0.00;;;;;;;;6208953;22;45578;-77
2023/03/18 10:41:32;;;;;;;;;0.00;0.00;;;;;;;;6208919;22;45252;-78
2023/03/18 10:44:00;;;;;;;;;17.25;10.75;;;;;;;;6208444;22;45488;-79
2023/03/18 10:46:25;;;;;;;;;2.50;2.00;;;;;;;;6223267;22;46475;-78
2023/03/18 10:48:53;;;;;;;;;0.50;0.50;;;;;;;;6335385;22;45503;-79
2023/03/18 10:51:30;;;;;;;;;0.00;0.00;;;;;;;;6336521;22;45279;-80
2023/03/18 10:54:01;;;;;;;;;1.00;1.00;;;;;;;;6335175;22;45323;-78
2023/03/18 10:56:27;;;;;;;;;0.00;0.00;;;;;;;;6335635;22;46213;-78
2023/03/18 10:58:52;;;;;;;;;1.00;1.00;;;;;;;;6335138;22;45317;-79
2023/03/18 11:01:19;;;;;;;;;0.67;0.67;;;;;;;;6335955;22;45307;-79
2023/03/18 11:03:47;;;;;;;;;0.00;0.00;;;;;;;;6335552;22;45504;-78
2023/03/18 11:06:24;;;;;;;;;0.00;0.00;;;;;;;;6335909;22;46684;-80
2023/03/18 11:08:58;;;;;;;;;0.00;0.00;;;;;;;;6335778;22;45557;-80
2023/03/18 11:11:31;;;;;;;;;0.00;0.00;;;;;;;;6335861;22;45344;-80
2023/03/18 11:13:58;;;;;;;;;0.00;0.00;;;;;;;;6334997;22;45374;-80
2023/03/18 11:16:24;;;;;;;;;0.00;0.00;;;;;;;;6335272;22;46540;-79
2023/03/18 11:18:51;;;;;;;;;1.25;0.00;;;;;;;;6334938;22;45276;-78
2023/03/18 11:21:17;;;;;;;;;0.00;0.00;;;;;;;;6335859;22;45236;-78
2023/03/18 11:24:06;;;;;;;;;1.00;0.00;;;;;;;;6335521;22;45567;-78
2023/03/18 11:26:41;;;;;;;;;0.00;0.00;;;;;;;;6335509;22;46452;-78
2023/03/18 11:29:12;;;;;;;;;3.75;2.00;;;;;;;;6335001;22;46162;-78
2023/03/18 11:31:48;;;;;;;;;0.25;0.00;;;;;;;;6335526;22;45258;-79
2023/03/18 11:34:15;;;;;;;;;0.75;0.75;;;;;;;;6335952;22;45244;-79
2023/03/18 11:36:40;;;;;;;;;3.00;1.25;;;;;;;;6335538;22;45361;-79
2023/03/18 11:39:06;;;;;;;;;2.33;0.00;;;;;;;;6335977;22;45422;-79
2023/03/18 11:41:31;;;;;;;;;5.25;0.75;;;;;;;;6335195;22;45372;-77
2023/03/18 11:44:01;;;;;;;;;1.00;0.00;;;;;;;;6335417;22;45529;-78
2023/03/18 11:46:35;;;;;;;;;0.00;0.00;;;;;;;;6333868;22;48182;-78
2023/03/18 11:49:00;;;;;;;;;0.00;0.00;;;;;;;;6335771;22;45483;-79
2023/03/18 11:51:44;;;;;;;;;2.00;0.25;;;;;;;;6335980;22;45480;-78
2023/03/18 11:54:21;;;;;;;;;0.00;0.00;;;;;;;;6335251;22;45424;-78
2023/03/18 11:56:48;;;;;;;;;0.00;0.00;;;;;;;;6334914;22;45568;-78
2023/03/18 11:59:16;;;;;;;;;0.50;0.00;;;;;;;;6335468;22;45637;-78
2023/03/18 12:01:41;;;;;;;;;0.00;0.00;;;;;;;;6335597;22;45327;-79
2023/03/18 12:04:22;;;;;;;;;1.00;0.00;;;;;;;;6335745;22;45649;-79
2023/03/18 12:06:47;;;;;;;;;0.75;0.00;;;;;;;;6335478;22;45616;-78
2023/03/18 12:09:13;;;;;;;;;0.67;0.67;;;;;;;;6335453;22;45246;-78
2023/03/18 12:11:52;;;;;;;;;0.50;0.50;;;;;;;;6334536;22;45252;-78
2023/03/18 12:14:32;;;;;;;;;0.00;0.00;;;;;;;;6335589;22;45613;-78
2023/03/18 12:17:09;;;;;;;;;1.00;0.00;;;;;;;;6335282;22;45192;-78
2023/03/18 12:19:34;;;;;;;;;0.75;0.00;;;;;;;;6333740;22;45584;-79
2023/03/18 12:22:18;;;;;;;;;0.00;0.00;;;;;;;;6335051;22;45260;-79
2023/03/18 12:24:43;;;;;;;;;1.00;0.00;;;;;;;;6335448;22;45267;-79
2023/03/18 12:27:08;;;;;;;;;0.00;0.00;;;;;;;;6334852;22;46493;-79
2023/03/18 12:30:06;;;;;;;;;0.00;0.00;;;;;;;;6333687;22;45555;-79
2023/03/18 12:32:39;;;;;;;;;0.00;0.00;;;;;;;;6208340;22;45393;-80
2023/03/18 12:35:08;;;;;;;;;0.25;0.00;;;;;;;;6208540;22;45471;-80
2023/03/18 12:37:42;;;;;;;;;0.00;0.00;;;;;;;;6182684;22;47873;-82
2023/03/18 12:40:11;;;;;;;;;1.00;0.00;;;;;;;;6181948;22;45550;-83
2023/03/18 12:42:43;;;;;;;;;1.50;0.00;;;;;;;;6208673;22;45251;-82
2023/03/18 12:45:10;;;;;;;;;0.75;0.50;;;;;;;;6208301;22;45325;-80
2023/03/18 12:47:45;;;;;;;;;0.00;0.00;;;;;;;;6207584;22;46364;-81
2023/03/18 12:50:15;;;;;;;;;0.00;0.00;;;;;;;;6207724;22;45304;-81
2023/03/18 12:52:43;;;;;;;;;0.50;0.00;;;;;;;;6208559;22;45343;-82
2023/03/18 12:55:17;;;;;;;;;0.00;0.00;;;;;;;;6208707;22;45507;-81
2023/03/18 12:58:01;;;;;;;;;0.00;0.00;;;;;;;;6182687;22;47524;-81
2023/03/18 13:00:37;;;;;;;;;0.00;0.00;;;;;;;;6208318;22;45453;-81
2023/03/18 13:03:12;;;;;;;;;1.00;0.00;;;;;;;;6207941;22;45782;-82
2023/03/18 13:05:41;;;;;;;;;1.75;0.00;;;;;;;;6208184;22;45367;-82
2023/03/18 13:08:19;;;;;;;;;0.00;0.00;;;;;;;;6270686;22;45576;-82
2023/03/18 13:10:48;;;;;;;;;0.00;0.00;;;;;;;;6334118;22;45335;-82
2023/03/18 13:13:15;;;;;;;;;0.00;0.00;;;;;;;;6335015;22;45248;-80
2023/03/18 13:15:43;;;;;;;;;0.00;0.00;;;;;;;;6334387;22;45493;-83
2023/03/18 13:18:15;;;;;;;;;0.00;0.00;;;;;;;;6332835;22;47611;-83
2023/03/18 13:20:41;;;;;;;;;1.00;0.00;;;;;;;;6333185;22;45661;-82
2023/03/18 13:23:16;;;;;;;;;0.00;0.00;;;;;;;;6335964;22;45212;-81
2023/03/18 13:25:53;;;;;;;;;0.00;0.00;;;;;;;;6335254;22;45325;-80
2023/03/18 13:28:27;;;;;;;;;0.00;0.00;;;;;;;;6335647;22;45311;-80
2023/03/18 13:30:54;;;;;;;;;0.00;0.00;;;;;;;;6335210;22;45344;-80
2023/03/18 13:33:20;;;;;;;;;0.00;0.00;;;;;;;;6335674;22;45266;-80
2023/03/18 13:36:05;;;;;;;;;0.00;0.00;;;;;;;;6335336;22;45323;-80
2023/03/18 13:38:42;;;;;;;;;0.00;0.00;;;;;;;;6334889;22;46378;-80
2023/03/18 13:41:17;;;;;;;;;0.00;0.00;;;;;;;;6335327;22;45348;-80
2023/03/18 13:43:48;;;;;;;;;0.00;0.00;;;;;;;;6335711;22;45392;-80
2023/03/18 13:46:23;;;;;;;;;0.00;0.00;;;;;;;;6335418;22;45220;-81
2023/03/18 13:48:54;;;;;;;;;0.00;0.00;;;;;;;;6335063;22;46583;-80
2023/03/18 13:51:22;;;;;;;;;0.00;0.00;;;;;;;;6335680;22;45229;-79
2023/03/18 13:53:49;;;;;;;;;0.00;0.00;;;;;;;;6334766;22;45265;-80
2023/03/18 13:56:46;;;;;;;;;1.50;0.00;;;;;;;;6335336;22;45496;-81
2023/03/18 13:59:30;;;;;;;;;0.00;0.00;;;;;;;;6335517;22;45470;-80
2023/03/18 14:01:57;;;;;;;;;0.00;0.00;;;;;;;;6336950;22;45581;-80
2023/03/18 14:04:25;;;;;;;;;0.00;0.00;;;;;;;;6337179;22;45253;-80
2023/03/18 14:06:54;;;;;;;;;0.00;0.00;;;;;;;;6336805;22;45452;-80
2023/03/18 14:09:28;;;;;;;;;1.75;1.00;;;;;;;;6336065;22;47162;-80
2023/03/18 14:11:54;;;;;;;;;0.00;0.00;;;;;;;;6336920;22;45328;-80
2023/03/18 14:14:38;;;;;;;;;0.00;0.00;;;;;;;;6337143;22;45305;-80
2023/03/18 14:17:03;;;;;;;;;0.00;0.00;;;;;;;;6336724;22;45417;-80
2023/03/18 14:19:33;;;;;;;;;1.00;0.00;;;;;;;;6336824;22;45338;-80
2023/03/18 14:22:12;;;;;;;;;0.00;0.00;;;;;;;;6336646;22;45288;-80
2023/03/18 14:24:38;;;;;;;;;0.00;0.00;;;;;;;;6337033;22;45295;-80
2023/03/18 14:27:03;;;;;;;;;0.50;0.00;;;;;;;;6337201;22;45257;-80
2023/03/18 14:29:42;;;;;;;;;0.00;0.00;;;;;;;;6336335;22;46466;-80
2023/03/18 14:32:25;;;;;;;;;0.00;0.00;;;;;;;;6336222;22;45315;-80
2023/03/18 14:34:56;;;;;;;;;0.00;0.00;;;;;;;;6336555;22;45269;-81
2023/03/18 14:37:21;;;;;;;;;0.00;0.00;;;;;;;;6336347;22;45255;-79
2023/03/18 14:39:47;;;;;;;;;1.00;0.00;;;;;;;;6337117;22;46358;-79
2023/03/18 14:42:13;;;;;;;;;1.75;1.00;;;;;;;;6337179;22;45559;-80
2023/03/18 14:44:54;;;;;;;;;2.50;0.00;;;;;;;;6336729;22;45319;-80
2023/03/18 14:47:20;;;;;;;;;0.00;0.00;;;;;;;;6336722;22;45545;-81